sensor_id;sensor_type;location;lat;lon;timestamp;temperature;humidity
37678;DHT22;23517;50.390;8.616;2023-04-06T00:00:55;0.00;46.80
37678;DHT22;23517;50.390;8.616;2023-04-06T00:03:21;0.00;46.80
37678;DHT22;23517;50.390;8.616;2023-04-06T00:05:48;0.00;47.40
37678;DHT22;23517;50.390;8.616;2023-04-06T00:08:15;-0.10;47.60
37678;DHT22;23517;50.390;8.616;2023-04-06T00:10:43;-0.10;47.90
37678;DHT22;23517;50.390;8.616;2023-04-06T00:13:10;-0.20;47.60
37678;DHT22;23517;50.390;8.616;2023-04-06T00:15:37;-0.30;48.20
37678;DHT22;23517;50.390;8.616;2023-04-06T00:18:11;-0.40;49.30
37678;DHT22;23517;50.390;8.616;2023-04-06T00:20:38;-0.50;49.60
37678;DHT22;23517;50.390;8.616;2023-04-06T00:23:05;-0.50;50.10
37678;DHT22;23517;50.390;8.616;2023-04-06T00:25:31;-0.50;50.10
37678;DHT22;23517;50.390;8.616;2023-04-06T00:27:58;-0.50;50.30
37678;DHT22;23517;50.390;8.616;2023-04-06T00:30:25;-0.50;49.70
37678;DHT22;23517;50.390;8.616;2023-04-06T00:32:51;-0.40;49.60
37678;DHT22;23517;50.390;8.616;2023-04-06T00:35:18;-0.40;49.00
37678;DHT22;23517;50.390;8.616;2023-04-06T00:37:47;-0.40;48.80
37678;DHT22;23517;50.390;8.616;2023-04-06T00:40:14;-0.40;48.80
37678;DHT22;23517;50.390;8.616;2023-04-06T00:42:42;-0.40;48.80
37678;DHT22;23517;50.390;8.616;2023-04-06T00:45:09;-0.40;49.00
37678;DHT22;23517;50.390;8.616;2023-04-06T00:47:37;-0.40;48.70
37678;DHT22;23517;50.390;8.616;2023-04-06T00:50:05;-0.40;48.50
37678;DHT22;23517;50.390;8.616;2023-04-06T00:52:33;-0.50;49.20
37678;DHT22;23517;50.390;8.616;2023-04-06T00:55:00;-0.50;49.60
37678;DHT22;23517;50.390;8.616;2023-04-06T00:57:26;-0.50;49.40
37678;DHT22;23517;50.390;8.616;2023-04-06T00:59:53;-0.50;49.00
37678;DHT22;23517;50.390;8.616;2023-04-06T01:02:20;-0.50;48.90
37678;DHT22;23517;50.390;8.616;2023-04-06T01:04:47;-0.50;49.10
37678;DHT22;23517;50.390;8.616;2023-04-06T01:07:13;-0.40;48.70
37678;DHT22;23517;50.390;8.616;2023-04-06T01:09:40;-0.50;48.40
37678;DHT22;23517;50.390;8.616;2023-04-06T01:12:08;-0.40;48.30
37678;DHT22;23517;50.390;8.616;2023-04-06T01:14:35;-0.50;47.70
37678;DHT22;23517;50.390;8.616;2023-04-06T01:17:05;-0.40;48.20
37678;DHT22;23517;50.390;8.616;2023-04-06T01:19:32;-0.50;48.00
37678;DHT22;23517;50.390;8.616;2023-04-06T01:21:59;-0.50;48.20
37678;DHT22;23517;50.390;8.616;2023-04-06T01:24:25;-0.50;47.90
37678;DHT22;23517;50.390;8.616;2023-04-06T01:26:52;-0.60;48.60
37678;DHT22;23517;50.390;8.616;2023-04-06T01:29:19;-0.60;48.70
37678;DHT22;23517;50.390;8.616;2023-04-06T01:31:46;-0.50;48.60
37678;DHT22;23517;50.390;8.616;2023-04-06T01:34:13;-0.50;48.70
37678;DHT22;23517;50.390;8.616;2023-04-06T01:36:39;-0.50;48.40
37678;DHT22;23517;50.390;8.616;2023-04-06T01:39:07;-0.50;48.30
37678;DHT22;23517;50.390;8.616;2023-04-06T01:41:44;-0.50;47.70
37678;DHT22;23517;50.390;8.616;2023-04-06T01:44:11;-0.50;48.20
37678;DHT22;23517;50.390;8.616;2023-04-06T01:46:38;-0.50;48.20
37678;DHT22;23517;50.390;8.616;2023-04-06T01:49:04;-0.50;48.20
37678;DHT22;23517;50.390;8.616;2023-04-06T01:51:33;-0.50;48.10
37678;DHT22;23517;50.390;8.616;2023-04-06T01:54:00;-0.60;47.90
37678;DHT22;23517;50.390;8.616;2023-04-06T01:56:27;-0.60;47.70
37678;DHT22;23517;50.390;8.616;2023-04-06T01:58:54;-0.70;47.70
37678;DHT22;23517;50.390;8.616;2023-04-06T02:01:22;-0.60;48.50
37678;DHT22;23517;50.390;8.616;2023-04-06T02:03:48;-0.60;48.00
37678;DHT22;23517;50.390;8.616;2023-04-06T02:06:15;-0.60;48.10
37678;DHT22;23517;50.390;8.616;2023-04-06T02:08:42;-0.70;48.30
37678;DHT22;23517;50.390;8.616;2023-04-06T02:11:08;-0.70;48.40
37678;DHT22;23517;50.390;8.616;2023-04-06T02:13:35;-0.70;48.00
37678;DHT22;23517;50.390;8.616;2023-04-06T02:16:03;-0.70;48.00
37678;DHT22;23517;50.390;8.616;2023-04-06T02:18:31;-0.80;48.30
37678;DHT22;23517;50.390;8.616;2023-04-06T02:20:57;-0.90;48.70
37678;DHT22;23517;50.390;8.616;2023-04-06T02:23:24;-0.90;49.20
37678;DHT22;23517;50.390;8.616;2023-04-06T02:25:51;-1.00;49.20
37678;DHT22;23517;50.390;8.616;2023-04-06T02:28:18;-1.10;49.60
37678;DHT22;23517;50.390;8.616;2023-04-06T02:30:44;-1.10;50.00
37678;DHT22;23517;50.390;8.616;2023-04-06T02:33:11;-1.10;50.20
37678;DHT22;23517;50.390;8.616;2023-04-06T02:35:38;-1.10;50.10
37678;DHT22;23517;50.390;8.616;2023-04-06T02:38:07;-1.10;51.00
37678;DHT22;23517;50.390;8.616;2023-04-06T02:40:33;-1.10;50.70
37678;DHT22;23517;50.390;8.616;2023-04-06T02:43:00;-1.20;50.90
37678;DHT22;23517;50.390;8.616;2023-04-06T02:45:27;-1.20;51.50
37678;DHT22;23517;50.390;8.616;2023-04-06T02:47:54;-1.20;51.60
37678;DHT22;23517;50.390;8.616;2023-04-06T02:50:20;-1.10;51.30
37678;DHT22;23517;50.390;8.616;2023-04-06T02:52:47;-1.20;51.10
37678;DHT22;23517;50.390;8.616;2023-04-06T02:55:14;-1.20;51.50
37678;DHT22;23517;50.390;8.616;2023-04-06T02:57:41;-1.20;51.20
37678;DHT22;23517;50.390;8.616;2023-04-06T03:00:08;-1.20;51.10
37678;DHT22;23517;50.390;8.616;2023-04-06T03:02:35;-1.30;51.10
37678;DHT22;23517;50.390;8.616;2023-04-06T03:05:02;-1.20;51.90
37678;DHT22;23517;50.390;8.616;2023-04-06T03:07:29;-1.30;51.70
37678;DHT22;23517;50.390;8.616;2023-04-06T03:09:56;-1.40;51.80
37678;DHT22;23517;50.390;8.616;2023-04-06T03:12:23;-1.40;51.60
37678;DHT22;23517;50.390;8.616;2023-04-06T03:14:50;-1.40;51.90
37678;DHT22;23517;50.390;8.616;2023-04-06T03:17:16;-1.30;52.10
37678;DHT22;23517;50.390;8.616;2023-04-06T03:19:45;-1.40;51.90
37678;DHT22;23517;50.390;8.616;2023-04-06T03:22:11;-1.40;51.90
37678;DHT22;23517;50.390;8.616;2023-04-06T03:24:38;-1.50;52.20
37678;DHT22;23517;50.390;8.616;2023-04-06T03:27:05;-1.50;52.50
37678;DHT22;23517;50.390;8.616;2023-04-06T03:29:32;-1.40;52.20
37678;DHT22;23517;50.390;8.616;2023-04-06T03:31:59;-1.40;52.30
37678;DHT22;23517;50.390;8.616;2023-04-06T03:34:26;-1.40;52.40
37678;DHT22;23517;50.390;8.616;2023-04-06T03:36:55;-1.40;52.60
37678;DHT22;23517;50.390;8.616;2023-04-06T03:39:35;-1.40;52.70
37678;DHT22;23517;50.390;8.616;2023-04-06T03:42:02;-1.40;52.60
37678;DHT22;23517;50.390;8.616;2023-04-06T03:44:28;-1.50;52.70
37678;DHT22;23517;50.390;8.616;2023-04-06T03:46:55;-1.40;52.60
37678;DHT22;23517;50.390;8.616;2023-04-06T03:49:22;-1.50;52.80
37678;DHT22;23517;50.390;8.616;2023-04-06T03:51:49;-1.50;52.60
37678;DHT22;23517;50.390;8.616;2023-04-06T03:54:16;-1.60;52.90
37678;DHT22;23517;50.390;8.616;2023-04-06T03:56:44;-1.60;53.30
37678;DHT22;23517;50.390;8.616;2023-04-06T03:59:10;-1.50;53.80
37678;DHT22;23517;50.390;8.616;2023-04-06T04:01:37;-1.50;53.20
37678;DHT22;23517;50.390;8.616;2023-04-06T04:04:05;-1.50;53.30
37678;DHT22;23517;50.390;8.616;2023-04-06T04:06:32;-1.50;53.10
37678;DHT22;23517;50.390;8.616;2023-04-06T04:08:59;-1.60;52.70
37678;DHT22;23517;50.390;8.616;2023-04-06T04:11:25;-1.60;53.20
37678;DHT22;23517;50.390;8.616;2023-04-06T04:13:52;-1.60;53.20
37678;DHT22;23517;50.390;8.616;2023-04-06T04:16:19;-1.60;53.20
37678;DHT22;23517;50.390;8.616;2023-04-06T04:18:46;-1.60;52.80
37678;DHT22;23517;50.390;8.616;2023-04-06T04:21:14;-1.70;53.20
37678;DHT22;23517;50.390;8.616;2023-04-06T04:23:41;-1.80;53.00
37678;DHT22;23517;50.390;8.616;2023-04-06T04:26:08;-1.80;53.70
37678;DHT22;23517;50.390;8.616;2023-04-06T04:28:35;-1.80;53.40
37678;DHT22;23517;50.390;8.616;2023-04-06T04:31:01;-1.80;53.90
37678;DHT22;23517;50.390;8.616;2023-04-06T04:33:28;-1.80;53.80
37678;DHT22;23517;50.390;8.616;2023-04-06T04:35:55;-1.80;54.20
37678;DHT22;23517;50.390;8.616;2023-04-06T04:38:22;-1.90;54.40
37678;DHT22;23517;50.390;8.616;2023-04-06T04:40:48;-1.80;54.60
37678;DHT22;23517;50.390;8.616;2023-04-06T04:43:15;-1.80;54.60
37678;DHT22;23517;50.390;8.616;2023-04-06T04:45:42;-1.80;53.80
37678;DHT22;23517;50.390;8.616;2023-04-06T04:48:09;-1.80;53.30
37678;DHT22;23517;50.390;8.616;2023-04-06T04:50:35;-1.80;53.70
37678;DHT22;23517;50.390;8.616;2023-04-06T04:53:02;-1.80;54.10
37678;DHT22;23517;50.390;8.616;2023-04-06T04:55:32;-1.80;54.00
37678;DHT22;23517;50.390;8.616;2023-04-06T04:58:01;-1.80;53.60
37678;DHT22;23517;50.390;8.616;2023-04-06T05:00:28;-1.80;54.00
37678;DHT22;23517;50.390;8.616;2023-04-06T05:02:55;-1.80;54.10
37678;DHT22;23517;50.390;8.616;2023-04-06T05:05:22;-1.70;53.00
37678;DHT22;23517;50.390;8.616;2023-04-06T05:07:49;-1.80;53.20
37678;DHT22;23517;50.390;8.616;2023-04-06T05:10:15;-1.80;54.00
37678;DHT22;23517;50.390;8.616;2023-04-06T05:12:42;-1.80;53.10
37678;DHT22;23517;50.390;8.616;2023-04-06T05:15:09;-1.70;52.80
37678;DHT22;23517;50.390;8.616;2023-04-06T05:17:36;-1.70;53.10
37678;DHT22;23517;50.390;8.616;2023-04-06T05:20:03;-1.70;53.30
37678;DHT22;23517;50.390;8.616;2023-04-06T05:22:31;-1.70;53.40
37678;DHT22;23517;50.390;8.616;2023-04-06T05:24:58;-1.60;53.40
37678;DHT22;23517;50.390;8.616;2023-04-06T05:27:25;-1.60;53.30
37678;DHT22;23517;50.390;8.616;2023-04-06T05:29:51;-1.50;53.40
37678;DHT22;23517;50.390;8.616;2023-04-06T05:32:19;-1.50;53.20
37678;DHT22;23517;50.390;8.616;2023-04-06T05:34:54;-1.50;53.50
37678;DHT22;23517;50.390;8.616;2023-04-06T05:37:21;-1.40;53.30
37678;DHT22;23517;50.390;8.616;2023-04-06T05:39:47;-1.40;53.10
37678;DHT22;23517;50.390;8.616;2023-04-06T05:42:14;-1.30;53.10
37678;DHT22;23517;50.390;8.616;2023-04-06T05:44:42;-1.20;52.50
37678;DHT22;23517;50.390;8.616;2023-04-06T05:47:08;-1.10;52.00
37678;DHT22;23517;50.390;8.616;2023-04-06T05:49:35;-1.10;52.10
37678;DHT22;23517;50.390;8.616;2023-04-06T05:52:02;-0.90;52.00
37678;DHT22;23517;50.390;8.616;2023-04-06T05:54:30;-0.80;52.40
37678;DHT22;23517;50.390;8.616;2023-04-06T05:56:57;-0.80;52.40
37678;DHT22;23517;50.390;8.616;2023-04-06T05:59:24;-0.70;52.10
37678;DHT22;23517;50.390;8.616;2023-04-06T06:01:51;-0.60;51.80
37678;DHT22;23517;50.390;8.616;2023-04-06T06:04:17;-0.50;51.70
37678;DHT22;23517;50.390;8.616;2023-04-06T06:06:44;-0.50;51.70
37678;DHT22;23517;50.390;8.616;2023-04-06T06:09:11;-0.40;51.00
37678;DHT22;23517;50.390;8.616;2023-04-06T06:11:38;-0.20;50.40
37678;DHT22;23517;50.390;8.616;2023-04-06T06:14:05;-0.10;50.20
37678;DHT22;23517;50.390;8.616;2023-04-06T06:16:32;0.00;50.20
37678;DHT22;23517;50.390;8.616;2023-04-06T06:18:59;0.20;49.70
37678;DHT22;23517;50.390;8.616;2023-04-06T06:21:25;0.40;49.00
37678;DHT22;23517;50.390;8.616;2023-04-06T06:23:54;0.60;48.80
37678;DHT22;23517;50.390;8.616;2023-04-06T06:26:21;0.90;48.10
37678;DHT22;23517;50.390;8.616;2023-04-06T06:28:48;1.00;47.20
37678;DHT22;23517;50.390;8.616;2023-04-06T06:31:15;1.30;46.40
37678;DHT22;23517;50.390;8.616;2023-04-06T06:33:42;1.70;45.40
37678;DHT22;23517;50.390;8.616;2023-04-06T06:36:09;2.20;43.50
37678;DHT22;23517;50.390;8.616;2023-04-06T06:38:36;2.60;42.30
37678;DHT22;23517;50.390;8.616;2023-04-06T06:41:02;3.30;39.60
37678;DHT22;23517;50.390;8.616;2023-04-06T06:43:29;4.30;38.10
37678;DHT22;23517;50.390;8.616;2023-04-06T06:45:57;6.10;33.10
37678;DHT22;23517;50.390;8.616;2023-04-06T06:48:25;7.80;27.40
37678;DHT22;23517;50.390;8.616;2023-04-06T06:50:51;9.40;25.00
37678;DHT22;23517;50.390;8.616;2023-04-06T06:53:19;11.00;19.90
37678;DHT22;23517;50.390;8.616;2023-04-06T06:55:46;11.90;16.70
37678;DHT22;23517;50.390;8.616;2023-04-06T06:58:17;11.10;16.70
37678;DHT22;23517;50.390;8.616;2023-04-06T07:00:44;10.30;17.60
37678;DHT22;23517;50.390;8.616;2023-04-06T07:03:11;9.30;19.70
37678;DHT22;23517;50.390;8.616;2023-04-06T07:05:48;8.50;21.40
37678;DHT22;23517;50.390;8.616;2023-04-06T07:08:23;9.10;21.30
37678;DHT22;23517;50.390;8.616;2023-04-06T07:10:51;10.40;18.90
37678;DHT22;23517;50.390;8.616;2023-04-06T07:13:19;11.90;16.60
37678;DHT22;23517;50.390;8.616;2023-04-06T07:15:50;13.00;16.10
37678;DHT22;23517;50.390;8.616;2023-04-06T07:18:18;14.00;13.50
37678;DHT22;23517;50.390;8.616;2023-04-06T07:20:45;14.50;13.00
37678;DHT22;23517;50.390;8.616;2023-04-06T07:23:12;15.30;12.20
37678;DHT22;23517;50.390;8.616;2023-04-06T07:25:39;15.30;12.20
37678;DHT22;23517;50.390;8.616;2023-04-06T07:28:05;15.20;12.40
37678;DHT22;23517;50.390;8.616;2023-04-06T07:30:32;15.60;12.60
37678;DHT22;23517;50.390;8.616;2023-04-06T07:33:02;16.40;11.30
37678;DHT22;23517;50.390;8.616;2023-04-06T07:35:29;16.60;11.30
37678;DHT22;23517;50.390;8.616;2023-04-06T07:37:59;17.00;10.80
37678;DHT22;23517;50.390;8.616;2023-04-06T07:40:26;17.40;10.20
37678;DHT22;23517;50.390;8.616;2023-04-06T07:42:53;18.00;9.70
37678;DHT22;23517;50.390;8.616;2023-04-06T07:45:23;17.60;9.90
37678;DHT22;23517;50.390;8.616;2023-04-06T07:47:50;18.40;10.00
37678;DHT22;23517;50.390;8.616;2023-04-06T07:50:17;18.70;9.90
37678;DHT22;23517;50.390;8.616;2023-04-06T07:52:43;18.50;9.40
37678;DHT22;23517;50.390;8.616;2023-04-06T07:55:10;18.70;9.20
37678;DHT22;23517;50.390;8.616;2023-04-06T07:57:37;18.40;9.10
37678;DHT22;23517;50.390;8.616;2023-04-06T08:00:04;18.10;10.50
37678;DHT22;23517;50.390;8.616;2023-04-06T08:02:32;18.50;10.00
37678;DHT22;23517;50.390;8.616;2023-04-06T08:04:58;19.50;7.90
37678;DHT22;23517;50.390;8.616;2023-04-06T08:07:28;20.20;7.60
37678;DHT22;23517;50.390;8.616;2023-04-06T08:09:54;20.60;6.30
37678;DHT22;23517;50.390;8.616;2023-04-06T08:12:21;19.90;7.90
37678;DHT22;23517;50.390;8.616;2023-04-06T08:14:48;20.90;6.40
37678;DHT22;23517;50.390;8.616;2023-04-06T08:17:14;20.50;7.00
37678;DHT22;23517;50.390;8.616;2023-04-06T08:19:43;20.20;7.50
37678;DHT22;23517;50.390;8.616;2023-04-06T08:22:11;20.50;7.40
37678;DHT22;23517;50.390;8.616;2023-04-06T08:24:38;20.70;7.10
37678;DHT22;23517;50.390;8.616;2023-04-06T08:27:07;20.50;6.70
37678;DHT22;23517;50.390;8.616;2023-04-06T08:29:34;20.50;7.60
37678;DHT22;23517;50.390;8.616;2023-04-06T08:32:01;20.90;7.20
37678;DHT22;23517;50.390;8.616;2023-04-06T08:34:32;21.30;6.70
37678;DHT22;23517;50.390;8.616;2023-04-06T08:36:59;21.30;6.80
37678;DHT22;23517;50.390;8.616;2023-04-06T08:39:27;21.10;6.00
37678;DHT22;23517;50.390;8.616;2023-04-06T08:41:54;19.90;7.80
37678;DHT22;23517;50.390;8.616;2023-04-06T08:44:26;20.40;7.70
37678;DHT22;23517;50.390;8.616;2023-04-06T08:46:53;20.40;8.00
37678;DHT22;23517;50.390;8.616;2023-04-06T08:49:21;20.40;7.80
37678;DHT22;23517;50.390;8.616;2023-04-06T08:51:49;19.40;8.90
37678;DHT22;23517;50.390;8.616;2023-04-06T08:54:16;19.20;9.70
37678;DHT22;23517;50.390;8.616;2023-04-06T08:56:43;20.10;9.20
37678;DHT22;23517;50.390;8.616;2023-04-06T08:59:11;21.60;6.60
37678;DHT22;23517;50.390;8.616;2023-04-06T09:01:40;22.10;5.60
37678;DHT22;23517;50.390;8.616;2023-04-06T09:04:10;22.60;5.20
37678;DHT22;23517;50.390;8.616;2023-04-06T09:06:39;22.70;4.50
37678;DHT22;23517;50.390;8.616;2023-04-06T09:09:07;21.80;5.10
37678;DHT22;23517;50.390;8.616;2023-04-06T09:11:51;22.80;4.70
37678;DHT22;23517;50.390;8.616;2023-04-06T09:14:33;22.50;5.10
37678;DHT22;23517;50.390;8.616;2023-04-06T09:17:02;21.80;5.00
37678;DHT22;23517;50.390;8.616;2023-04-06T09:19:28;22.00;5.00
37678;DHT22;23517;50.390;8.616;2023-04-06T09:22:06;21.20;5.20
37678;DHT22;23517;50.390;8.616;2023-04-06T09:27:14;21.70;4.60
37678;DHT22;23517;50.390;8.616;2023-04-06T09:29:41;21.80;4.80
37678;DHT22;23517;50.390;8.616;2023-04-06T09:32:09;22.40;5.00
37678;DHT22;23517;50.390;8.616;2023-04-06T09:34:38;22.20;4.80
37678;DHT22;23517;50.390;8.616;2023-04-06T09:37:27;22.40;2.90
37678;DHT22;23517;50.390;8.616;2023-04-06T09:40:05;23.40;2.60
37678;DHT22;23517;50.390;8.616;2023-04-06T09:42:34;22.70;2.20
37678;DHT22;23517;50.390;8.616;2023-04-06T09:45:02;21.50;3.80
37678;DHT22;23517;50.390;8.616;2023-04-06T09:47:30;20.10;4.70
37678;DHT22;23517;50.390;8.616;2023-04-06T09:49:59;18.80;5.70
37678;DHT22;23517;50.390;8.616;2023-04-06T09:52:33;17.70;7.60
37678;DHT22;23517;50.390;8.616;2023-04-06T09:55:05;16.30;8.80
37678;DHT22;23517;50.390;8.616;2023-04-06T09:57:41;15.60;9.60
37678;DHT22;23517;50.390;8.616;2023-04-06T10:00:11;15.20;10.40
37678;DHT22;23517;50.390;8.616;2023-04-06T10:03:14;14.70;10.50
37678;DHT22;23517;50.390;8.616;2023-04-06T10:05:55;14.40;10.50
37678;DHT22;23517;50.390;8.616;2023-04-06T10:08:27;14.00;11.40
37678;DHT22;23517;50.390;8.616;2023-04-06T10:10:58;13.90;11.60
37678;DHT22;23517;50.390;8.616;2023-04-06T10:13:27;13.80;11.80
37678;DHT22;23517;50.390;8.616;2023-04-06T10:15:54;13.80;12.00
37678;DHT22;23517;50.390;8.616;2023-04-06T10:18:21;13.50;11.90
37678;DHT22;23517;50.390;8.616;2023-04-06T10:21:05;13.20;12.60
37678;DHT22;23517;50.390;8.616;2023-04-06T10:23:46;13.20;13.30
37678;DHT22;23517;50.390;8.616;2023-04-06T10:26:16;13.30;13.50
37678;DHT22;23517;50.390;8.616;2023-04-06T10:28:47;13.40;13.60
37678;DHT22;23517;50.390;8.616;2023-04-06T10:31:23;13.50;13.30
37678;DHT22;23517;50.390;8.616;2023-04-06T10:36:33;13.40;13.20
37678;DHT22;23517;50.390;8.616;2023-04-06T10:39:03;13.20;12.80
37678;DHT22;23517;50.390;8.616;2023-04-06T10:41:44;13.20;13.50
37678;DHT22;23517;50.390;8.616;2023-04-06T10:44:21;13.30;14.00
37678;DHT22;23517;50.390;8.616;2023-04-06T10:46:59;13.30;13.40
37678;DHT22;23517;50.390;8.616;2023-04-06T10:49:29;13.60;13.40
37678;DHT22;23517;50.390;8.616;2023-04-06T10:51:56;13.70;13.00
37678;DHT22;23517;50.390;8.616;2023-04-06T10:54:25;13.60;13.10
37678;DHT22;23517;50.390;8.616;2023-04-06T10:56:52;13.50;13.00
37678;DHT22;23517;50.390;8.616;2023-04-06T10:59:20;13.40;13.00
37678;DHT22;23517;50.390;8.616;2023-04-06T11:01:48;13.40;13.90
37678;DHT22;23517;50.390;8.616;2023-04-06T11:04:19;13.40;14.30
37678;DHT22;23517;50.390;8.616;2023-04-06T11:06:48;13.40;14.20
37678;DHT22;23517;50.390;8.616;2023-04-06T11:09:28;13.40;13.00
37678;DHT22;23517;50.390;8.616;2023-04-06T11:11:57;13.30;12.30
37678;DHT22;23517;50.390;8.616;2023-04-06T11:14:25;13.10;12.20
37678;DHT22;23517;50.390;8.616;2023-04-06T11:16:52;12.90;13.30
37678;DHT22;23517;50.390;8.616;2023-04-06T11:19:19;12.90;13.40
37678;DHT22;23517;50.390;8.616;2023-04-06T11:21:48;13.10;12.70
37678;DHT22;23517;50.390;8.616;2023-04-06T11:24:16;13.10;13.40
37678;DHT22;23517;50.390;8.616;2023-04-06T11:29:15;13.00;12.10
37678;DHT22;23517;50.390;8.616;2023-04-06T11:31:48;13.10;12.40
37678;DHT22;23517;50.390;8.616;2023-04-06T11:34:21;13.20;12.50
37678;DHT22;23517;50.390;8.616;2023-04-06T11:36:54;13.10;13.20
37678;DHT22;23517;50.390;8.616;2023-04-06T11:39:24;12.80;12.90
37678;DHT22;23517;50.390;8.616;2023-04-06T11:41:54;12.80;13.60
37678;DHT22;23517;50.390;8.616;2023-04-06T11:44:36;12.90;13.60
37678;DHT22;23517;50.390;8.616;2023-04-06T11:47:07;12.90;12.90
37678;DHT22;23517;50.390;8.616;2023-04-06T11:49:38;12.80;12.40
37678;DHT22;23517;50.390;8.616;2023-04-06T11:52:20;13.10;11.10
37678;DHT22;23517;50.390;8.616;2023-04-06T11:54:49;13.20;12.20
37678;DHT22;23517;50.390;8.616;2023-04-06T11:57:18;13.40;11.90
37678;DHT22;23517;50.390;8.616;2023-04-06T11:59:46;13.50;11.20
37678;DHT22;23517;50.390;8.616;2023-04-06T12:02:13;13.50;11.30
37678;DHT22;23517;50.390;8.616;2023-04-06T12:04:40;13.60;11.90
37678;DHT22;23517;50.390;8.616;2023-04-06T12:07:06;13.70;12.60
37678;DHT22;23517;50.390;8.616;2023-04-06T12:09:33;13.70;12.00
37678;DHT22;23517;50.390;8.616;2023-04-06T12:12:01;13.80;12.10
37678;DHT22;23517;50.390;8.616;2023-04-06T12:14:28;13.70;11.60
37678;DHT22;23517;50.390;8.616;2023-04-06T12:16:57;13.90;11.90
37678;DHT22;23517;50.390;8.616;2023-04-06T12:19:24;14.00;12.30
37678;DHT22;23517;50.390;8.616;2023-04-06T12:21:53;14.00;12.20
37678;DHT22;23517;50.390;8.616;2023-04-06T12:24:20;14.10;11.70
37678;DHT22;23517;50.390;8.616;2023-04-06T12:26:47;14.40;11.20
37678;DHT22;23517;50.390;8.616;2023-04-06T12:29:19;14.40;11.10
37678;DHT22;23517;50.390;8.616;2023-04-06T12:31:46;14.50;11.00
37678;DHT22;23517;50.390;8.616;2023-04-06T12:34:12;14.60;10.50
37678;DHT22;23517;50.390;8.616;2023-04-06T12:36:39;14.70;10.10
37678;DHT22;23517;50.390;8.616;2023-04-06T12:39:06;14.80;10.60
37678;DHT22;23517;50.390;8.616;2023-04-06T12:41:33;15.00;10.90
37678;DHT22;23517;50.390;8.616;2023-04-06T12:44:00;14.80;10.70
37678;DHT22;23517;50.390;8.616;2023-04-06T12:46:28;14.80;10.40
37678;DHT22;23517;50.390;8.616;2023-04-06T12:48:59;14.90;11.20
37678;DHT22;23517;50.390;8.616;2023-04-06T12:51:28;15.00;11.40
37678;DHT22;23517;50.390;8.616;2023-04-06T12:53:56;15.20;11.30
37678;DHT22;23517;50.390;8.616;2023-04-06T12:56:23;15.10;11.60
37678;DHT22;23517;50.390;8.616;2023-04-06T12:58:51;14.80;12.20
37678;DHT22;23517;50.390;8.616;2023-04-06T13:01:19;14.50;11.90
37678;DHT22;23517;50.390;8.616;2023-04-06T13:03:46;14.30;12.40
37678;DHT22;23517;50.390;8.616;2023-04-06T13:06:13;14.40;10.60
37678;DHT22;23517;50.390;8.616;2023-04-06T13:08:41;14.40;10.90
37678;DHT22;23517;50.390;8.616;2023-04-06T13:11:09;14.30;10.90
37678;DHT22;23517;50.390;8.616;2023-04-06T13:13:36;14.30;11.70
37678;DHT22;23517;50.390;8.616;2023-04-06T13:16:07;14.30;12.10
37678;DHT22;23517;50.390;8.616;2023-04-06T13:18:35;14.20;12.30
37678;DHT22;23517;50.390;8.616;2023-04-06T13:21:05;14.30;12.80
37678;DHT22;23517;50.390;8.616;2023-04-06T13:23:33;14.30;13.00
37678;DHT22;23517;50.390;8.616;2023-04-06T13:26:04;14.10;12.70
37678;DHT22;23517;50.390;8.616;2023-04-06T13:28:34;14.10;12.90
37678;DHT22;23517;50.390;8.616;2023-04-06T13:31:03;14.10;12.90
37678;DHT22;23517;50.390;8.616;2023-04-06T13:33:30;14.10;12.90
37678;DHT22;23517;50.390;8.616;2023-04-06T13:35:58;14.00;13.20
37678;DHT22;23517;50.390;8.616;2023-04-06T13:38:25;13.90;13.00
37678;DHT22;23517;50.390;8.616;2023-04-06T13:40:52;13.80;13.20
37678;DHT22;23517;50.390;8.616;2023-04-06T13:43:19;13.60;14.00
37678;DHT22;23517;50.390;8.616;2023-04-06T13:45:50;13.60;13.70
37678;DHT22;23517;50.390;8.616;2023-04-06T13:48:18;13.70;13.80
37678;DHT22;23517;50.390;8.616;2023-04-06T13:50:45;13.60;13.80
37678;DHT22;23517;50.390;8.616;2023-04-06T13:53:14;13.50;13.70
37678;DHT22;23517;50.390;8.616;2023-04-06T13:55:41;13.50;14.00
37678;DHT22;23517;50.390;8.616;2023-04-06T13:58:07;13.60;13.90
37678;DHT22;23517;50.390;8.616;2023-04-06T14:00:34;13.70;13.40
37678;DHT22;23517;50.390;8.616;2023-04-06T14:03:05;13.80;13.80
37678;DHT22;23517;50.390;8.616;2023-04-06T14:05:33;13.80;13.40
37678;DHT22;23517;50.390;8.616;2023-04-06T14:08:00;13.80;14.40
37678;DHT22;23517;50.390;8.616;2023-04-06T14:10:28;14.00;14.30
37678;DHT22;23517;50.390;8.616;2023-04-06T14:12:55;14.10;13.80
37678;DHT22;23517;50.390;8.616;2023-04-06T14:15:22;14.20;13.80
37678;DHT22;23517;50.390;8.616;2023-04-06T14:17:49;14.10;13.10
37678;DHT22;23517;50.390;8.616;2023-04-06T14:20:16;13.90;13.30
37678;DHT22;23517;50.390;8.616;2023-04-06T14:22:43;13.90;13.00
37678;DHT22;23517;50.390;8.616;2023-04-06T14:25:10;13.80;13.50
37678;DHT22;23517;50.390;8.616;2023-04-06T14:27:40;13.70;13.80
37678;DHT22;23517;50.390;8.616;2023-04-06T14:30:07;13.60;13.90
37678;DHT22;23517;50.390;8.616;2023-04-06T14:32:35;13.60;14.20
37678;DHT22;23517;50.390;8.616;2023-04-06T14:35:03;13.50;14.40
37678;DHT22;23517;50.390;8.616;2023-04-06T14:37:33;13.50;14.10
37678;DHT22;23517;50.390;8.616;2023-04-06T14:40:00;13.50;13.50
37678;DHT22;23517;50.390;8.616;2023-04-06T14:42:26;13.40;13.50
37678;DHT22;23517;50.390;8.616;2023-04-06T14:44:55;13.20;13.80
37678;DHT22;23517;50.390;8.616;2023-04-06T14:47:22;13.20;14.10
37678;DHT22;23517;50.390;8.616;2023-04-06T14:49:51;13.10;14.00
37678;DHT22;23517;50.390;8.616;2023-04-06T14:52:18;13.00;13.80
37678;DHT22;23517;50.390;8.616;2023-04-06T14:54:44;13.10;14.00
37678;DHT22;23517;50.390;8.616;2023-04-06T14:57:11;13.10;14.80
37678;DHT22;23517;50.390;8.616;2023-04-06T14:59:38;13.30;14.30
37678;DHT22;23517;50.390;8.616;2023-04-06T15:02:06;13.30;14.70
37678;DHT22;23517;50.390;8.616;2023-04-06T15:04:36;13.30;13.50
37678;DHT22;23517;50.390;8.616;2023-04-06T15:07:03;13.40;13.50
37678;DHT22;23517;50.390;8.616;2023-04-06T15:09:30;13.30;13.40
37678;DHT22;23517;50.390;8.616;2023-04-06T15:11:57;13.30;13.90
37678;DHT22;23517;50.390;8.616;2023-04-06T15:14:24;13.40;13.80
37678;DHT22;23517;50.390;8.616;2023-04-06T15:16:51;13.40;14.00
37678;DHT22;23517;50.390;8.616;2023-04-06T15:19:18;13.50;13.80
37678;DHT22;23517;50.390;8.616;2023-04-06T15:21:44;13.50;13.60
37678;DHT22;23517;50.390;8.616;2023-04-06T15:24:11;13.30;13.40
37678;DHT22;23517;50.390;8.616;2023-04-06T15:26:38;13.30;13.60
37678;DHT22;23517;50.390;8.616;2023-04-06T15:29:04;13.20;13.30
37678;DHT22;23517;50.390;8.616;2023-04-06T15:31:31;13.20;13.50
37678;DHT22;23517;50.390;8.616;2023-04-06T15:34:05;13.20;13.50
37678;DHT22;23517;50.390;8.616;2023-04-06T15:36:34;13.20;13.60
37678;DHT22;23517;50.390;8.616;2023-04-06T15:39:01;13.30;13.60
37678;DHT22;23517;50.390;8.616;2023-04-06T15:41:27;13.10;13.00
37678;DHT22;23517;50.390;8.616;2023-04-06T15:43:54;13.10;13.80
37678;DHT22;23517;50.390;8.616;2023-04-06T15:46:23;13.00;14.10
37678;DHT22;23517;50.390;8.616;2023-04-06T15:48:49;12.90;4.80